sensor_id;sensor_type;location;lat;lon;timestamp;P1;durP1;ratioP1;P2;durP2;ratioP2
5257;SDS011;2651;51.594;9.928;2024-03-07T00:01:01;19.08;;;9.23;;
5257;SDS011;2651;51.594;9.928;2024-03-07T00:02:06;19.85;;;9.60;;
5257;SDS011;2651;51.594;9.928;2024-03-07T00:03:08;20.65;;;9.65;;
5257;SDS011;2651;51.594;9.928;2024-03-07T00:04:09;21.60;;;9.18;;
5257;SDS011;2651;51.594;9.928;2024-03-07T00:05:11;11.07;;;6.90;;
5257;SDS011;2651;51.594;9.928;2024-03-07T00:06:14;14.52;;;7.03;;
5257;SDS011;2651;51.594;9.928;2024-03-07T00:07:16;14.95;;;7.85;;
5257;SDS011;2651;51.594;9.928;2024-03-07T00:08:17;12.55;;;7.15;;
5257;SDS011;2651;51.594;9.928;2024-03-07T00:09:19;15.52;;;7.35;;
5257;SDS011;2651;51.594;9.928;2024-03-07T00:10:25;14.60;;;7.35;;
5257;SDS011;2651;51.594;9.928;2024-03-07T00:11:27;19.38;;;9.38;;
5257;SDS011;2651;51.594;9.928;2024-03-07T00:12:29;16.75;;;7.47;;
5257;SDS011;2651;51.594;9.928;2024-03-07T00:13:31;13.70;;;6.95;;
5257;SDS011;2651;51.594;9.928;2024-03-07T00:14:32;10.68;;;7.22;;
5257;SDS011;2651;51.594;9.928;2024-03-07T00:15:36;15.48;;;7.75;;
5257;SDS011;2651;51.594;9.928;2024-03-07T00:16:38;15.23;;;7.72;;
5257;SDS011;2651;51.594;9.928;2024-03-07T00:17:41;14.18;;;8.15;;
5257;SDS011;2651;51.594;9.928;2024-03-07T00:18:44;14.60;;;6.70;;
5257;SDS011;2651;51.594;9.928;2024-03-07T00:19:45;11.07;;;7.28;;
5257;SDS011;2651;51.594;9.928;2024-03-07T00:20:49;14.02;;;6.50;;
5257;SDS011;2651;51.594;9.928;2024-03-07T00:21:50;13.93;;;8.02;;
5257;SDS011;2651;51.594;9.928;2024-03-07T00:22:53;11.95;;;7.07;;
5257;SDS011;2651;51.594;9.928;2024-03-07T00:23:55;12.50;;;7.60;;
5257;SDS011;2651;51.594;9.928;2024-03-07T00:24:57;10.00;;;6.43;;
5257;SDS011;2651;51.594;9.928;2024-03-07T00:25:59;9.38;;;6.00;;
5257;SDS011;2651;51.594;9.928;2024-03-07T00:27:00;14.75;;;7.45;;
5257;SDS011;2651;51.594;9.928;2024-03-07T00:28:03;11.15;;;7.07;;
5257;SDS011;2651;51.594;9.928;2024-03-07T00:29:04;11.57;;;6.43;;
5257;SDS011;2651;51.594;9.928;2024-03-07T00:30:08;10.80;;;5.85;;
5257;SDS011;2651;51.594;9.928;2024-03-07T00:31:10;9.98;;;6.47;;
5257;SDS011;2651;51.594;9.928;2024-03-07T00:32:12;11.13;;;7.00;;
5257;SDS011;2651;51.594;9.928;2024-03-07T00:33:16;15.82;;;7.32;;
5257;SDS011;2651;51.594;9.928;2024-03-07T00:34:18;12.80;;;6.50;;
5257;SDS011;2651;51.594;9.928;2024-03-07T00:35:26;14.10;;;7.40;;
5257;SDS011;2651;51.594;9.928;2024-03-07T00:36:28;10.50;;;7.15;;
5257;SDS011;2651;51.594;9.928;2024-03-07T00:37:30;8.35;;;6.00;;
5257;SDS011;2651;51.594;9.928;2024-03-07T00:38:32;11.73;;;7.25;;
5257;SDS011;2651;51.594;9.928;2024-03-07T00:39:34;9.77;;;6.82;;
5257;SDS011;2651;51.594;9.928;2024-03-07T00:40:36;11.07;;;6.85;;
5257;SDS011;2651;51.594;9.928;2024-03-07T00:41:38;9.45;;;6.00;;
5257;SDS011;2651;51.594;9.928;2024-03-07T00:42:40;11.80;;;6.63;;
5257;SDS011;2651;51.594;9.928;2024-03-07T00:43:42;11.27;;;6.43;;
5257;SDS011;2651;51.594;9.928;2024-03-07T00:44:44;10.50;;;7.25;;
5257;SDS011;2651;51.594;9.928;2024-03-07T00:45:46;13.52;;;7.00;;
5257;SDS011;2651;51.594;9.928;2024-03-07T00:46:51;11.30;;;6.78;;
5257;SDS011;2651;51.594;9.928;2024-03-07T00:47:53;11.38;;;7.65;;
5257;SDS011;2651;51.594;9.928;2024-03-07T00:48:55;14.48;;;7.75;;
5257;SDS011;2651;51.594;9.928;2024-03-07T00:49:56;13.10;;;7.40;;
5257;SDS011;2651;51.594;9.928;2024-03-07T00:50:58;20.20;;;7.68;;
5257;SDS011;2651;51.594;9.928;2024-03-07T00:52:00;8.70;;;6.22;;
5257;SDS011;2651;51.594;9.928;2024-03-07T00:53:02;16.90;;;6.82;;
5257;SDS011;2651;51.594;9.928;2024-03-07T00:54:03;11.63;;;6.85;;
5257;SDS011;2651;51.594;9.928;2024-03-07T00:55:06;10.52;;;6.78;;
5257;SDS011;2651;51.594;9.928;2024-03-07T00:56:11;10.43;;;6.65;;
5257;SDS011;2651;51.594;9.928;2024-03-07T00:57:13;11.60;;;6.50;;
5257;SDS011;2651;51.594;9.928;2024-03-07T00:58:15;12.40;;;6.50;;
5257;SDS011;2651;51.594;9.928;2024-03-07T00:59:17;11.35;;;7.60;;
5257;SDS011;2651;51.594;9.928;2024-03-07T01:00:19;15.52;;;7.70;;
5257;SDS011;2651;51.594;9.928;2024-03-07T01:01:22;14.00;;;7.25;;
5257;SDS011;2651;51.594;9.928;2024-03-07T01:02:24;12.02;;;6.25;;
5257;SDS011;2651;51.594;9.928;2024-03-07T01:03:27;12.88;;;7.40;;
5257;SDS011;2651;51.594;9.928;2024-03-07T01:04:28;11.60;;;8.00;;
5257;SDS011;2651;51.594;9.928;2024-03-07T01:05:34;10.88;;;6.53;;
5257;SDS011;2651;51.594;9.928;2024-03-07T01:06:36;14.20;;;7.03;;
5257;SDS011;2651;51.594;9.928;2024-03-07T01:07:38;11.80;;;6.88;;
5257;SDS011;2651;51.594;9.928;2024-03-07T01:08:41;12.32;;;6.05;;
5257;SDS011;2651;51.594;9.928;2024-03-07T01:09:42;11.45;;;6.90;;
5257;SDS011;2651;51.594;9.928;2024-03-07T01:10:44;11.63;;;6.55;;
5257;SDS011;2651;51.594;9.928;2024-03-07T01:11:46;9.38;;;5.60;;
5257;SDS011;2651;51.594;9.928;2024-03-07T01:12:48;9.85;;;6.70;;
5257;SDS011;2651;51.594;9.928;2024-03-07T01:13:51;16.67;;;8.50;;
5257;SDS011;2651;51.594;9.928;2024-03-07T01:14:53;13.15;;;7.07;;
5257;SDS011;2651;51.594;9.928;2024-03-07T01:15:54;10.18;;;6.60;;
5257;SDS011;2651;51.594;9.928;2024-03-07T01:16:56;13.05;;;7.30;;
5257;SDS011;2651;51.594;9.928;2024-03-07T01:17:58;10.40;;;6.68;;
5257;SDS011;2651;51.594;9.928;2024-03-07T01:19:00;17.30;;;7.70;;
5257;SDS011;2651;51.594;9.928;2024-03-07T01:20:02;11.20;;;7.60;;
5257;SDS011;2651;51.594;9.928;2024-03-07T01:21:04;12.75;;;7.13;;
5257;SDS011;2651;51.594;9.928;2024-03-07T01:22:06;11.50;;;6.10;;
5257;SDS011;2651;51.594;9.928;2024-03-07T01:23:09;13.35;;;6.60;;
5257;SDS011;2651;51.594;9.928;2024-03-07T01:24:11;10.98;;;6.55;;
5257;SDS011;2651;51.594;9.928;2024-03-07T01:25:13;13.15;;;6.80;;
5257;SDS011;2651;51.594;9.928;2024-03-07T01:26:15;11.45;;;6.72;;
5257;SDS011;2651;51.594;9.928;2024-03-07T01:27:17;12.35;;;6.47;;
5257;SDS011;2651;51.594;9.928;2024-03-07T01:28:19;10.18;;;6.50;;
5257;SDS011;2651;51.594;9.928;2024-03-07T01:29:21;10.43;;;6.50;;
5257;SDS011;2651;51.594;9.928;2024-03-07T01:30:24;11.75;;;7.45;;
5257;SDS011;2651;51.594;9.928;2024-03-07T01:31:26;10.80;;;6.40;;
5257;SDS011;2651;51.594;9.928;2024-03-07T01:32:28;10.30;;;6.70;;
5257;SDS011;2651;51.594;9.928;2024-03-07T01:33:30;12.45;;;6.15;;
5257;SDS011;2651;51.594;9.928;2024-03-07T01:34:32;11.05;;;6.63;;
5257;SDS011;2651;51.594;9.928;2024-03-07T01:35:34;11.63;;;7.18;;
5257;SDS011;2651;51.594;9.928;2024-03-07T01:36:35;12.27;;;7.53;;
5257;SDS011;2651;51.594;9.928;2024-03-07T01:37:37;13.32;;;7.22;;
5257;SDS011;2651;51.594;9.928;2024-03-07T01:38:39;11.45;;;6.72;;
5257;SDS011;2651;51.594;9.928;2024-03-07T01:39:41;14.45;;;7.10;;
5257;SDS011;2651;51.594;9.928;2024-03-07T01:40:42;12.10;;;7.43;;
5257;SDS011;2651;51.594;9.928;2024-03-07T01:41:45;10.48;;;6.50;;
5257;SDS011;2651;51.594;9.928;2024-03-07T01:42:47;11.65;;;6.65;;
5257;SDS011;2651;51.594;9.928;2024-03-07T01:43:50;13.80;;;7.30;;
5257;SDS011;2651;51.594;9.928;2024-03-07T01:44:52;11.88;;;7.70;;
5257;SDS011;2651;51.594;9.928;2024-03-07T01:45:54;13.32;;;6.53;;
5257;SDS011;2651;51.594;9.928;2024-03-07T01:47:00;9.25;;;5.55;;
5257;SDS011;2651;51.594;9.928;2024-03-07T01:48:10;17.75;;;7.60;;
5257;SDS011;2651;51.594;9.928;2024-03-07T01:49:15;11.52;;;7.00;;
5257;SDS011;2651;51.594;9.928;2024-03-07T01:50:17;11.27;;;6.45;;
5257;SDS011;2651;51.594;9.928;2024-03-07T01:51:19;11.57;;;6.03;;
5257;SDS011;2651;51.594;9.928;2024-03-07T01:52:23;9.65;;;6.55;;
5257;SDS011;2651;51.594;9.928;2024-03-07T01:53:28;12.05;;;7.47;;
5257;SDS011;2651;51.594;9.928;2024-03-07T01:54:31;9.30;;;6.25;;
5257;SDS011;2651;51.594;9.928;2024-03-07T01:55:33;13.63;;;7.53;;
5257;SDS011;2651;51.594;9.928;2024-03-07T01:56:35;12.43;;;7.50;;
5257;SDS011;2651;51.594;9.928;2024-03-07T01:57:38;12.82;;;6.68;;
5257;SDS011;2651;51.594;9.928;2024-03-07T01:58:40;13.88;;;6.72;;
5257;SDS011;2651;51.594;9.928;2024-03-07T01:59:43;15.10;;;7.05;;
5257;SDS011;2651;51.594;9.928;2024-03-07T02:00:45;11.93;;;7.10;;
5257;SDS011;2651;51.594;9.928;2024-03-07T02:01:47;12.75;;;7.25;;
5257;SDS011;2651;51.594;9.928;2024-03-07T02:02:49;12.65;;;7.78;;
5257;SDS011;2651;51.594;9.928;2024-03-07T02:03:51;18.55;;;7.90;;
5257;SDS011;2651;51.594;9.928;2024-03-07T02:04:53;14.27;;;7.90;;
5257;SDS011;2651;51.594;9.928;2024-03-07T02:05:55;15.80;;;8.48;;
5257;SDS011;2651;51.594;9.928;2024-03-07T02:06:57;11.40;;;7.30;;
5257;SDS011;2651;51.594;9.928;2024-03-07T02:08:00;16.20;;;9.27;;
5257;SDS011;2651;51.594;9.928;2024-03-07T02:09:02;13.40;;;7.68;;
5257;SDS011;2651;51.594;9.928;2024-03-07T02:10:06;15.63;;;9.30;;
5257;SDS011;2651;51.594;9.928;2024-03-07T02:11:08;18.80;;;9.55;;
5257;SDS011;2651;51.594;9.928;2024-03-07T02:12:11;17.10;;;8.80;;
5257;SDS011;2651;51.594;9.928;2024-03-07T02:13:13;14.13;;;8.40;;
5257;SDS011;2651;51.594;9.928;2024-03-07T02:14:14;14.55;;;9.02;;
5257;SDS011;2651;51.594;9.928;2024-03-07T02:15:16;14.48;;;8.63;;
5257;SDS011;2651;51.594;9.928;2024-03-07T02:16:18;18.73;;;9.05;;
5257;SDS011;2651;51.594;9.928;2024-03-07T02:17:21;13.85;;;8.25;;
5257;SDS011;2651;51.594;9.928;2024-03-07T02:18:23;18.27;;;9.10;;
5257;SDS011;2651;51.594;9.928;2024-03-07T02:19:25;15.30;;;9.57;;
5257;SDS011;2651;51.594;9.928;2024-03-07T02:20:27;15.55;;;8.60;;
5257;SDS011;2651;51.594;9.928;2024-03-07T02:21:29;15.68;;;9.10;;
5257;SDS011;2651;51.594;9.928;2024-03-07T02:22:31;13.10;;;8.20;;
5257;SDS011;2651;51.594;9.928;2024-03-07T02:23:32;16.38;;;8.23;;
5257;SDS011;2651;51.594;9.928;2024-03-07T02:24:34;16.13;;;8.82;;
5257;SDS011;2651;51.594;9.928;2024-03-07T02:25:36;15.73;;;9.50;;
5257;SDS011;2651;51.594;9.928;2024-03-07T02:26:38;18.63;;;8.50;;
5257;SDS011;2651;51.594;9.928;2024-03-07T02:27:40;15.05;;;8.80;;
5257;SDS011;2651;51.594;9.928;2024-03-07T02:28:42;16.85;;;9.15;;
5257;SDS011;2651;51.594;9.928;2024-03-07T02:29:44;15.30;;;9.35;;
5257;SDS011;2651;51.594;9.928;2024-03-07T02:30:48;12.77;;;7.20;;
5257;SDS011;2651;51.594;9.928;2024-03-07T02:31:49;15.88;;;9.00;;
5257;SDS011;2651;51.594;9.928;2024-03-07T02:32:52;15.32;;;8.77;;
5257;SDS011;2651;51.594;9.928;2024-03-07T02:33:57;15.85;;;9.10;;
5257;SDS011;2651;51.594;9.928;2024-03-07T02:34:58;14.70;;;9.57;;
5257;SDS011;2651;51.594;9.928;2024-03-07T02:36:00;14.05;;;8.35;;
5257;SDS011;2651;51.594;9.928;2024-03-07T02:37:02;14.52;;;9.02;;
5257;SDS011;2651;51.594;9.928;2024-03-07T02:38:04;15.90;;;9.30;;
5257;SDS011;2651;51.594;9.928;2024-03-07T02:39:09;14.93;;;8.40;;
5257;SDS011;2651;51.594;9.928;2024-03-07T02:40:11;19.45;;;9.38;;
5257;SDS011;2651;51.594;9.928;2024-03-07T02:41:13;15.57;;;9.10;;
5257;SDS011;2651;51.594;9.928;2024-03-07T02:42:15;15.55;;;9.07;;
5257;SDS011;2651;51.594;9.928;2024-03-07T02:43:17;19.60;;;9.38;;
5257;SDS011;2651;51.594;9.928;2024-03-07T02:44:19;13.25;;;7.97;;
5257;SDS011;2651;51.594;9.928;2024-03-07T02:45:21;13.43;;;8.98;;
5257;SDS011;2651;51.594;9.928;2024-03-07T02:46:22;21.42;;;10.00;;
5257;SDS011;2651;51.594;9.928;2024-03-07T02:47:24;14.68;;;9.00;;
5257;SDS011;2651;51.594;9.928;2024-03-07T02:48:26;12.63;;;7.97;;
5257;SDS011;2651;51.594;9.928;2024-03-07T02:49:27;19.40;;;9.10;;
5257;SDS011;2651;51.594;9.928;2024-03-07T02:50:29;15.60;;;9.00;;
5257;SDS011;2651;51.594;9.928;2024-03-07T02:51:31;19.77;;;10.45;;
5257;SDS011;2651;51.594;9.928;2024-03-07T02:52:33;15.70;;;9.00;;
5257;SDS011;2651;51.594;9.928;2024-03-07T02:53:35;12.57;;;8.35;;
5257;SDS011;2651;51.594;9.928;2024-03-07T02:54:36;13.80;;;8.48;;
5257;SDS011;2651;51.594;9.928;2024-03-07T02:55:38;15.38;;;8.68;;
5257;SDS011;2651;51.594;9.928;2024-03-07T02:56:40;14.80;;;8.25;;
5257;SDS011;2651;51.594;9.928;2024-03-07T02:57:42;15.70;;;9.23;;
5257;SDS011;2651;51.594;9.928;2024-03-07T02:58:43;17.50;;;9.88;;
5257;SDS011;2651;51.594;9.928;2024-03-07T02:59:45;14.32;;;8.95;;
5257;SDS011;2651;51.594;9.928;2024-03-07T03:00:47;16.75;;;9.32;;
5257;SDS011;2651;51.594;9.928;2024-03-07T03:01:50;13.07;;;8.30;;
5257;SDS011;2651;51.594;9.928;2024-03-07T03:02:52;14.55;;;8.52;;
5257;SDS011;2651;51.594;9.928;2024-03-07T03:03:54;16.13;;;8.27;;
5257;SDS011;2651;51.594;9.928;2024-03-07T03:04:55;17.17;;;9.80;;
5257;SDS011;2651;51.594;9.928;2024-03-07T03:05:58;13.93;;;8.65;;
5257;SDS011;2651;51.594;9.928;2024-03-07T03:07:00;15.68;;;8.68;;
5257;SDS011;2651;51.594;9.928;2024-03-07T03:08:01;18.88;;;10.05;;
5257;SDS011;2651;51.594;9.928;2024-03-07T03:09:03;17.40;;;9.05;;
5257;SDS011;2651;51.594;9.928;2024-03-07T03:10:06;15.25;;;8.95;;
5257;SDS011;2651;51.594;9.928;2024-03-07T03:11:10;15.38;;;8.57;;
5257;SDS011;2651;51.594;9.928;2024-03-07T03:12:15;19.20;;;10.15;;
5257;SDS011;2651;51.594;9.928;2024-03-07T03:13:17;18.10;;;9.27;;
5257;SDS011;2651;51.594;9.928;2024-03-07T03:14:19;16.92;;;9.60;;
5257;SDS011;2651;51.594;9.928;2024-03-07T03:15:20;14.88;;;8.20;;
5257;SDS011;2651;51.594;9.928;2024-03-07T03:16:22;16.27;;;8.30;;
5257;SDS011;2651;51.594;9.928;2024-03-07T03:17:44;13.90;;;8.05;;
5257;SDS011;2651;51.594;9.928;2024-03-07T03:18:48;13.32;;;8.85;;
5257;SDS011;2651;51.594;9.928;2024-03-07T03:19:49;14.68;;;9.55;;
5257;SDS011;2651;51.594;9.928;2024-03-07T03:20:53;18.77;;;10.30;;
5257;SDS011;2651;51.594;9.928;2024-03-07T03:21:54;16.40;;;9.50;;
5257;SDS011;2651;51.594;9.928;2024-03-07T03:22:57;16.85;;;9.48;;
5257;SDS011;2651;51.594;9.928;2024-03-07T03:24:19;16.48;;;9.02;;
5257;SDS011;2651;51.594;9.928;2024-03-07T03:25:21;19.15;;;9.82;;
5257;SDS011;2651;51.594;9.928;2024-03-07T03:26:24;16.38;;;9.68;;
5257;SDS011;2651;51.594;9.928;2024-03-07T03:27:26;16.58;;;9.07;;
5257;SDS011;2651;51.594;9.928;2024-03-07T03:28:27;15.18;;;8.45;;
5257;SDS011;2651;51.594;9.928;2024-03-07T03:29:29;17.85;;;10.07;;
5257;SDS011;2651;51.594;9.928;2024-03-07T03:30:32;15.32;;;9.20;;
5257;SDS011;2651;51.594;9.928;2024-03-07T03:31:36;17.30;;;8.80;;
5257;SDS011;2651;51.594;9.928;2024-03-07T03:32:38;12.50;;;8.80;;
5257;SDS011;2651;51.594;9.928;2024-03-07T03:33:40;16.73;;;9.35;;
5257;SDS011;2651;51.594;9.928;2024-03-07T03:34:42;15.98;;;9.02;;
5257;SDS011;2651;51.594;9.928;2024-03-07T03:35:44;16.30;;;9.30;;
5257;SDS011;2651;51.594;9.928;2024-03-07T03:36:46;17.75;;;8.85;;
5257;SDS011;2651;51.594;9.928;2024-03-07T03:37:47;16.30;;;9.68;;
5257;SDS011;2651;51.594;9.928;2024-03-07T03:38:49;17.63;;;9.30;;
5257;SDS011;2651;51.594;9.928;2024-03-07T03:39:51;17.63;;;9.68;;
5257;SDS011;2651;51.594;9.928;2024-03-07T03:40:53;14.30;;;9.18;;
5257;SDS011;2651;51.594;9.928;2024-03-07T03:41:54;18.33;;;10.00;;
5257;SDS011;2651;51.594;9.928;2024-03-07T03:42:56;17.40;;;8.68;;
5257;SDS011;2651;51.594;9.928;2024-03-07T03:43:58;16.80;;;9.93;;
5257;SDS011;2651;51.594;9.928;2024-03-07T03:45:00;18.98;;;10.18;;
5257;SDS011;2651;51.594;9.928;2024-03-07T03:46:02;17.63;;;10.25;;
5257;SDS011;2651;51.594;9.928;2024-03-07T03:47:03;17.13;;;10.13;;
5257;SDS011;2651;51.594;9.928;2024-03-07T03:48:05;16.38;;;9.68;;
5257;SDS011;2651;51.594;9.928;2024-03-07T03:49:08;16.25;;;9.57;;
5257;SDS011;2651;51.594;9.928;2024-03-07T03:50:10;17.15;;;10.00;;
5257;SDS011;2651;51.594;9.928;2024-03-07T03:51:14;16.15;;;10.10;;
5257;SDS011;2651;51.594;9.928;2024-03-07T03:52:16;14.23;;;9.18;;
5257;SDS011;2651;51.594;9.928;2024-03-07T03:53:18;18.08;;;10.57;;
5257;SDS011;2651;51.594;9.928;2024-03-07T03:54:20;18.90;;;10.40;;
5257;SDS011;2651;51.594;9.928;2024-03-07T03:55:21;22.55;;;11.13;;
5257;SDS011;2651;51.594;9.928;2024-03-07T03:56:23;14.60;;;8.35;;
5257;SDS011;2651;51.594;9.928;2024-03-07T03:57:27;18.60;;;9.95;;
5257;SDS011;2651;51.594;9.928;2024-03-07T03:58:30;18.13;;;9.68;;
5257;SDS011;2651;51.594;9.928;2024-03-07T03:59:32;15.77;;;9.20;;
5257;SDS011;2651;51.594;9.928;2024-03-07T04:00:34;23.58;;;10.25;;
5257;SDS011;2651;51.594;9.928;2024-03-07T04:01:36;19.50;;;10.13;;
5257;SDS011;2651;51.594;9.928;2024-03-07T04:02:41;18.60;;;9.45;;
5257;SDS011;2651;51.594;9.928;2024-03-07T04:03:44;13.75;;;9.05;;
5257;SDS011;2651;51.594;9.928;2024-03-07T04:04:49;17.10;;;8.98;;
5257;SDS011;2651;51.594;9.928;2024-03-07T04:05:52;14.20;;;9.40;;
5257;SDS011;2651;51.594;9.928;2024-03-07T04:06:56;16.58;;;9.02;;
5257;SDS011;2651;51.594;9.928;2024-03-07T04:07:58;19.98;;;9.95;;
5257;SDS011;2651;51.594;9.928;2024-03-07T04:09:00;17.73;;;8.32;;
5257;SDS011;2651;51.594;9.928;2024-03-07T04:10:01;13.52;;;9.68;;
5257;SDS011;2651;51.594;9.928;2024-03-07T04:11:10;17.30;;;9.32;;
5257;SDS011;2651;51.594;9.928;2024-03-07T04:12:13;13.38;;;8.88;;
5257;SDS011;2651;51.594;9.928;2024-03-07T04:13:15;15.43;;;9.40;;
5257;SDS011;2651;51.594;9.928;2024-03-07T04:14:16;19.60;;;9.70;;
5257;SDS011;2651;51.594;9.928;2024-03-07T04:15:21;16.80;;;9.70;;
5257;SDS011;2651;51.594;9.928;2024-03-07T04:16:23;17.48;;;9.95;;
5257;SDS011;2651;51.594;9.928;2024-03-07T04:17:24;18.00;;;10.82;;
5257;SDS011;2651;51.594;9.928;2024-03-07T04:18:26;18.30;;;8.93;;
5257;SDS011;2651;51.594;9.928;2024-03-07T04:19:28;15.93;;;9.27;;
5257;SDS011;2651;51.594;9.928;2024-03-07T04:20:32;14.05;;;8.55;;
5257;SDS011;2651;51.594;9.928;2024-03-07T04:21:34;17.30;;;9.32;;
5257;SDS011;2651;51.594;9.928;2024-03-07T04:22:36;16.50;;;9.43;;
5257;SDS011;2651;51.594;9.928;2024-03-07T04:23:41;17.70;;;10.07;;
5257;SDS011;2651;51.594;9.928;2024-03-07T04:24:43;15.10;;;9.55;;
5257;SDS011;2651;51.594;9.928;2024-03-07T04:25:44;14.60;;;8.55;;
5257;SDS011;2651;51.594;9.928;2024-03-07T04:26:46;14.20;;;9.13;;
5257;SDS011;2651;51.594;9.928;2024-03-07T04:27:48;19.88;;;10.05;;
5257;SDS011;2651;51.594;9.928;2024-03-07T04:28:50;17.73;;;9.63;;
5257;SDS011;2651;51.594;9.928;2024-03-07T04:29:53;15.93;;;10.68;;
5257;SDS011;2651;51.594;9.928;2024-03-07T04:30:55;19.33;;;8.77;;
5257;SDS011;2651;51.594;9.928;2024-03-07T04:31:56;19.02;;;10.43;;
5257;SDS011;2651;51.594;9.928;2024-03-07T04:32:59;15.93;;;9.32;;
5257;SDS011;2651;51.594;9.928;2024-03-07T04:34:01;16.17;;;8.55;;
5257;SDS011;2651;51.594;9.928;2024-03-07T04:35:03;28.40;;;10.30;;
5257;SDS011;2651;51.594;9.928;2024-03-07T04:36:08;16.35;;;8.90;;
5257;SDS011;2651;51.594;9.928;2024-03-07T04:37:10;17.92;;;9.80;;
5257;SDS011;2651;51.594;9.928;2024-03-07T04:38:12;17.08;;;9.98;;
5257;SDS011;2651;51.594;9.928;2024-03-07T04:39:16;15.50;;;9.38;;
5257;SDS011;2651;51.594;9.928;2024-03-07T04:40:29;22.02;;;10.43;;
5257;SDS011;2651;51.594;9.928;2024-03-07T04:41:30;12.45;;;8.00;;
5257;SDS011;2651;51.594;9.928;2024-03-07T04:42:32;17.02;;;9.23;;
5257;SDS011;2651;51.594;9.928;2024-03-07T04:43:34;21.08;;;11.07;;
5257;SDS011;2651;51.594;9.928;2024-03-07T04:44:36;15.95;;;10.32;;
5257;SDS011;2651;51.594;9.928;2024-03-07T04:45:38;17.13;;;8.98;;
5257;SDS011;2651;51.594;9.928;2024-03-07T04:46:40;15.32;;;9.00;;
5257;SDS011;2651;51.594;9.928;2024-03-07T04:47:44;16.10;;;8.82;;
5257;SDS011;2651;51.594;9.928;2024-03-07T04:48:46;17.52;;;9.68;;
5257;SDS011;2651;51.594;9.928;2024-03-07T04:49:48;20.77;;;11.05;;
5257;SDS011;2651;51.594;9.928;2024-03-07T04:50:50;19.45;;;9.57;;
5257;SDS011;2651;51.594;9.928;2024-03-07T04:51:52;19.38;;;9.77;;
5257;SDS011;2651;51.594;9.928;2024-03-07T04:52:54;16.92;;;9.85;;
5257;SDS011;2651;51.594;9.928;2024-03-07T04:53:56;15.77;;;10.20;;
5257;SDS011;2651;51.594;9.928;2024-03-07T04:54:57;16.30;;;10.13;;
5257;SDS011;2651;51.594;9.928;2024-03-07T04:55:59;21.25;;;10.68;;
5257;SDS011;2651;51.594;9.928;2024-03-07T04:57:01;15.45;;;9.95;;
5257;SDS011;2651;51.594;9.928;2024-03-07T04:58:03;19.95;;;10.50;;
5257;SDS011;2651;51.594;9.928;2024-03-07T04:59:05;17.25;;;9.77;;
5257;SDS011;2651;51.594;9.928;2024-03-07T05:00:07;16.90;;;9.60;;
5257;SDS011;2651;51.594;9.928;2024-03-07T05:01:14;16.33;;;9.95;;
5257;SDS011;2651;51.594;9.928;2024-03-07T05:02:16;19.17;;;9.60;;
5257;SDS011;2651;51.594;9.928;2024-03-07T05:03:17;16.02;;;9.50;;
5257;SDS011;2651;51.594;9.928;2024-03-07T05:04:19;15.10;;;9.32;;
5257;SDS011;2651;51.594;9.928;2024-03-07T05:05:21;18.52;;;9.45;;
5257;SDS011;2651;51.594;9.928;2024-03-07T05:06:26;13.27;;;9.32;;
5257;SDS011;2651;51.594;9.928;2024-03-07T05:07:28;16.55;;;9.38;;
5257;SDS011;2651;51.594;9.928;2024-03-07T05:08:29;16.25;;;8.65;;
5257;SDS011;2651;51.594;9.928;2024-03-07T05:09:32;17.70;;;9.07;;
5257;SDS011;2651;51.594;9.928;2024-03-07T05:10:34;19.77;;;9.00;;
5257;SDS011;2651;51.594;9.928;2024-03-07T05:11:37;17.38;;;9.77;;
5257;SDS011;2651;51.594;9.928;2024-03-07T05:12:39;18.38;;;10.65;;
5257;SDS011;2651;51.594;9.928;2024-03-07T05:13:41;20.13;;;9.40;;
5257;SDS011;2651;51.594;9.928;2024-03-07T05:14:43;16.02;;;8.77;;
5257;SDS011;2651;51.594;9.928;2024-03-07T05:15:46;18.77;;;10.23;;
5257;SDS011;2651;51.594;9.928;2024-03-07T05:16:47;17.33;;;10.18;;
5257;SDS011;2651;51.594;9.928;2024-03-07T05:18:06;19.98;;;9.95;;
5257;SDS011;2651;51.594;9.928;2024-03-07T05:19:08;17.63;;;9.43;;
5257;SDS011;2651;51.594;9.928;2024-03-07T05:20:10;15.75;;;9.13;;
5257;SDS011;2651;51.594;9.928;2024-03-07T05:21:14;26.23;;;9.05;;
5257;SDS011;2651;51.594;9.928;2024-03-07T05:22:34;17.50;;;9.52;;
5257;SDS011;2651;51.594;9.928;2024-03-07T05:23:35;19.15;;;9.75;;
5257;SDS011;2651;51.594;9.928;2024-03-07T05:24:38;16.48;;;10.10;;
5257;SDS011;2651;51.594;9.928;2024-03-07T05:25:39;17.23;;;10.20;;
5257;SDS011;2651;51.594;9.928;2024-03-07T05:26:41;16.38;;;9.55;;
5257;SDS011;2651;51.594;9.928;2024-03-07T05:27:43;18.33;;;10.80;;
5257;SDS011;2651;51.594;9.928;2024-03-07T05:28:46;19.48;;;10.77;;
5257;SDS011;2651;51.594;9.928;2024-03-07T05:29:48;17.35;;;10.52;;
5257;SDS011;2651;51.594;9.928;2024-03-07T05:30:49;20.65;;;10.25;;
5257;SDS011;2651;51.594;9.928;2024-03-07T05:31:52;19.35;;;10.07;;
5257;SDS011;2651;51.594;9.928;2024-03-07T05:32:53;16.42;;;9.60;;
5257;SDS011;2651;51.594;9.928;2024-03-07T05:33:56;18.08;;;9.68;;
5257;SDS011;2651;51.594;9.928;2024-03-07T05:34:58;16.30;;;10.50;;
5257;SDS011;2651;51.594;9.928;2024-03-07T05:35:59;18.65;;;8.88;;
5257;SDS011;2651;51.594;9.928;2024-03-07T05:37:14;16.88;;;9.75;;
5257;SDS011;2651;51.594;9.928;2024-03-07T05:38:16;15.00;;;10.00;;
5257;SDS011;2651;51.594;9.928;2024-03-07T05:39:19;23.08;;;10.55;;
5257;SDS011;2651;51.594;9.928;2024-03-07T05:40:21;18.85;;;10.25;;
5257;SDS011;2651;51.594;9.928;2024-03-07T05:41:23;15.30;;;9.95;;
5257;SDS011;2651;51.594;9.928;2024-03-07T05:42:25;16.35;;;9.93;;
5257;SDS011;2651;51.594;9.928;2024-03-07T05:43:27;21.95;;;9.15;;
5257;SDS011;2651;51.594;9.928;2024-03-07T05:44:28;23.02;;;9.93;;
5257;SDS011;2651;51.594;9.928;2024-03-07T05:45:30;17.92;;;10.00;;
5257;SDS011;2651;51.594;9.928;2024-03-07T05:46:32;15.93;;;9.70;;
5257;SDS011;2651;51.594;9.928;2024-03-07T05:47:34;16.98;;;9.70;;
5257;SDS011;2651;51.594;9.928;2024-03-07T05:48:36;23.83;;;10.20;;
5257;SDS011;2651;51.594;9.928;2024-03-07T05:49:37;16.80;;;9.80;;
5257;SDS011;2651;51.594;9.928;2024-03-07T05:50:39;17.88;;;9.95;;
5257;SDS011;2651;51.594;9.928;2024-03-07T05:51:42;19.42;;;10.65;;
5257;SDS011;2651;51.594;9.928;2024-03-07T05:52:46;17.92;;;8.93;;
5257;SDS011;2651;51.594;9.928;2024-03-07T05:53:49;16.45;;;10.20;;
5257;SDS011;2651;51.594;9.928;2024-03-07T05:54:51;18.45;;;9.80;;
5257;SDS011;2651;51.594;9.928;2024-03-07T05:55:53;16.10;;;9.60;;
5257;SDS011;2651;51.594;9.928;2024-03-07T05:56:55;20.40;;;10.68;;
5257;SDS011;2651;51.594;9.928;2024-03-07T05:57:57;13.75;;;9.48;;
5257;SDS011;2651;51.594;9.928;2024-03-07T05:58:58;17.52;;;9.40;;
5257;SDS011;2651;51.594;9.928;2024-03-07T06:00:00;19.88;;;10.32;;
5257;SDS011;2651;51.594;9.928;2024-03-07T06:01:02;17.23;;;9.68;;
5257;SDS011;2651;51.594;9.928;2024-03-07T06:02:04;14.63;;;9.02;;
5257;SDS011;2651;51.594;9.928;2024-03-07T06:03:06;18.73;;;10.48;;
5257;SDS011;2651;51.594;9.928;2024-03-07T06:04:09;18.52;;;10.77;;
5257;SDS011;2651;51.594;9.928;2024-03-07T06:05:11;18.85;;;9.93;;
5257;SDS011;2651;51.594;9.928;2024-03-07T06:06:17;19.45;;;9.55;;
5257;SDS011;2651;51.594;9.928;2024-03-07T06:07:22;16.90;;;9.98;;
5257;SDS011;2651;51.594;9.928;2024-03-07T06:08:24;16.08;;;9.68;;
5257;SDS011;2651;51.594;9.928;2024-03-07T06:09:26;17.55;;;10.63;;
5257;SDS011;2651;51.594;9.928;2024-03-07T06:10:28;15.50;;;9.25;;
5257;SDS011;2651;51.594;9.928;2024-03-07T06:11:29;16.83;;;9.57;;
5257;SDS011;2651;51.594;9.928;2024-03-07T06:12:31;20.10;;;10.48;;
5257;SDS011;2651;51.594;9.928;2024-03-07T06:13:33;15.48;;;9.80;;
5257;SDS011;2651;51.594;9.928;2024-03-07T06:14:34;17.98;;;10.40;;
5257;SDS011;2651;51.594;9.928;2024-03-07T06:15:39;18.60;;;10.35;;
5257;SDS011;2651;51.594;9.928;2024-03-07T06:16:41;16.73;;;9.60;;
5257;SDS011;2651;51.594;9.928;2024-03-07T06:17:43;17.95;;;10.80;;
5257;SDS011;2651;51.594;9.928;2024-03-07T06:18:47;20.90;;;11.05;;
5257;SDS011;2651;51.594;9.928;2024-03-07T06:19:49;16.73;;;9.00;;
5257;SDS011;2651;51.594;9.928;2024-03-07T06:20:51;18.60;;;10.95;;
5257;SDS011;2651;51.594;9.928;2024-03-07T06:21:52;17.90;;;11.27;;
5257;SDS011;2651;51.594;9.928;2024-03-07T06:22:55;14.40;;;9.85;;